sensor_id;sensor_type;location;lat;lon;timestamp;P1;durP1;ratioP1;P2;durP2;ratioP2
29382;SDS011;16365;51.598;7.668;2023-01-04T00:01:01;4.97;;;1.55;;
29382;SDS011;16365;51.598;7.668;2023-01-04T00:03:32;5.75;;;1.42;;
29382;SDS011;16365;51.598;7.668;2023-01-04T00:06:01;7.90;;;1.40;;
29382;SDS011;16365;51.598;7.668;2023-01-04T00:08:29;5.93;;;1.55;;
29382;SDS011;16365;51.598;7.668;2023-01-04T00:11:03;9.65;;;2.55;;
29382;SDS011;16365;51.598;7.668;2023-01-04T00:13:30;6.00;;;1.60;;
29382;SDS011;16365;51.598;7.668;2023-01-04T00:15:58;5.93;;;1.50;;
29382;SDS011;16365;51.598;7.668;2023-01-04T00:18:33;5.85;;;1.50;;
29382;SDS011;16365;51.598;7.668;2023-01-04T00:21:08;6.33;;;1.60;;
29382;SDS011;16365;51.598;7.668;2023-01-04T00:23:36;6.32;;;1.83;;
29382;SDS011;16365;51.598;7.668;2023-01-04T00:26:07;4.45;;;1.40;;
29382;SDS011;16365;51.598;7.668;2023-01-04T00:28:46;6.20;;;1.48;;
29382;SDS011;16365;51.598;7.668;2023-01-04T00:31:19;5.32;;;1.75;;
29382;SDS011;16365;51.598;7.668;2023-01-04T00:33:47;7.32;;;1.35;;
29382;SDS011;16365;51.598;7.668;2023-01-04T00:36:14;7.15;;;2.35;;
29382;SDS011;16365;51.598;7.668;2023-01-04T00:38:41;5.82;;;1.70;;
29382;SDS011;16365;51.598;7.668;2023-01-04T00:41:08;3.92;;;1.25;;
29382;SDS011;16365;51.598;7.668;2023-01-04T00:43:55;6.00;;;1.35;;
29382;SDS011;16365;51.598;7.668;2023-01-04T00:46:22;6.50;;;1.20;;
29382;SDS011;16365;51.598;7.668;2023-01-04T00:48:48;10.52;;;1.83;;
29382;SDS011;16365;51.598;7.668;2023-01-04T00:51:25;4.95;;;1.25;;
29382;SDS011;16365;51.598;7.668;2023-01-04T00:53:52;7.22;;;1.75;;
29382;SDS011;16365;51.598;7.668;2023-01-04T00:56:18;6.00;;;1.70;;
29382;SDS011;16365;51.598;7.668;2023-01-04T00:58:45;4.10;;;1.40;;
29382;SDS011;16365;51.598;7.668;2023-01-04T01:01:11;7.47;;;1.83;;
29382;SDS011;16365;51.598;7.668;2023-01-04T01:03:38;7.15;;;1.60;;
29382;SDS011;16365;51.598;7.668;2023-01-04T01:06:06;3.53;;;1.30;;
29382;SDS011;16365;51.598;7.668;2023-01-04T01:08:33;8.27;;;1.60;;
29382;SDS011;16365;51.598;7.668;2023-01-04T01:11:04;8.23;;;1.80;;
29382;SDS011;16365;51.598;7.668;2023-01-04T01:13:32;7.88;;;1.55;;
29382;SDS011;16365;51.598;7.668;2023-01-04T01:18:35;6.65;;;1.67;;
29382;SDS011;16365;51.598;7.668;2023-01-04T01:21:04;4.40;;;1.40;;
29382;SDS011;16365;51.598;7.668;2023-01-04T01:23:31;3.63;;;1.20;;
29382;SDS011;16365;51.598;7.668;2023-01-04T01:25:59;13.75;;;1.75;;
29382;SDS011;16365;51.598;7.668;2023-01-04T01:28:26;4.95;;;1.33;;
29382;SDS011;16365;51.598;7.668;2023-01-04T01:30:54;4.22;;;1.50;;
29382;SDS011;16365;51.598;7.668;2023-01-04T01:33:20;6.57;;;1.40;;
29382;SDS011;16365;51.598;7.668;2023-01-04T01:35:47;8.60;;;1.55;;
29382;SDS011;16365;51.598;7.668;2023-01-04T01:38:13;4.07;;;1.33;;
29382;SDS011;16365;51.598;7.668;2023-01-04T01:40:40;4.43;;;1.63;;
29382;SDS011;16365;51.598;7.668;2023-01-04T01:43:20;9.15;;;1.17;;
29382;SDS011;16365;51.598;7.668;2023-01-04T01:45:50;5.38;;;1.33;;
29382;SDS011;16365;51.598;7.668;2023-01-04T01:48:22;9.65;;;1.70;;
29382;SDS011;16365;51.598;7.668;2023-01-04T01:51:01;6.93;;;1.98;;
29382;SDS011;16365;51.598;7.668;2023-01-04T01:53:31;5.45;;;1.30;;
29382;SDS011;16365;51.598;7.668;2023-01-04T01:56:00;6.25;;;1.15;;
29382;SDS011;16365;51.598;7.668;2023-01-04T01:58:31;7.97;;;1.63;;
29382;SDS011;16365;51.598;7.668;2023-01-04T02:01:01;6.97;;;1.67;;
29382;SDS011;16365;51.598;7.668;2023-01-04T02:03:31;7.28;;;1.50;;
29382;SDS011;16365;51.598;7.668;2023-01-04T02:06:00;9.48;;;1.05;;
29382;SDS011;16365;51.598;7.668;2023-01-04T02:08:30;5.70;;;1.13;;
29382;SDS011;16365;51.598;7.668;2023-01-04T02:10:57;8.60;;;1.52;;
29382;SDS011;16365;51.598;7.668;2023-01-04T02:13:25;4.38;;;1.20;;
29382;SDS011;16365;51.598;7.668;2023-01-04T02:22:24;6.07;;;1.75;;
29382;SDS011;16365;51.598;7.668;2023-01-04T02:33:42;7.05;;;1.83;;
29382;SDS011;16365;51.598;7.668;2023-01-04T02:41:28;6.55;;;1.40;;
29382;SDS011;16365;51.598;7.668;2023-01-04T02:44:13;7.78;;;1.67;;
29382;SDS011;16365;51.598;7.668;2023-01-04T02:47:01;4.18;;;1.15;;
29382;SDS011;16365;51.598;7.668;2023-01-04T02:49:31;8.65;;;1.90;;
29382;SDS011;16365;51.598;7.668;2023-01-04T02:52:17;3.95;;;1.33;;
29382;SDS011;16365;51.598;7.668;2023-01-04T02:54:45;4.70;;;1.27;;
29382;SDS011;16365;51.598;7.668;2023-01-04T02:57:23;5.85;;;1.33;;
29382;SDS011;16365;51.598;7.668;2023-01-04T03:09:22;5.53;;;1.33;;
29382;SDS011;16365;51.598;7.668;2023-01-04T03:11:59;4.70;;;1.42;;
29382;SDS011;16365;51.598;7.668;2023-01-04T03:14:52;5.00;;;1.50;;
29382;SDS011;16365;51.598;7.668;2023-01-04T03:17:43;5.57;;;1.33;;
29382;SDS011;16365;51.598;7.668;2023-01-04T03:20:15;6.05;;;1.23;;
29382;SDS011;16365;51.598;7.668;2023-01-04T03:22:52;7.00;;;1.63;;
29382;SDS011;16365;51.598;7.668;2023-01-04T03:25:43;7.00;;;1.63;;
29382;SDS011;16365;51.598;7.668;2023-01-04T03:28:50;5.15;;;1.65;;
29382;SDS011;16365;51.598;7.668;2023-01-04T03:31:39;3.00;;;1.40;;
29382;SDS011;16365;51.598;7.668;2023-01-04T03:34:28;5.10;;;1.25;;
29382;SDS011;16365;51.598;7.668;2023-01-04T03:40:16;4.43;;;1.08;;
29382;SDS011;16365;51.598;7.668;2023-01-04T03:43:11;3.28;;;1.30;;
29382;SDS011;16365;51.598;7.668;2023-01-04T03:46:03;4.30;;;1.75;;
29382;SDS011;16365;51.598;7.668;2023-01-04T03:48:59;2.72;;;1.10;;
29382;SDS011;16365;51.598;7.668;2023-01-04T03:51:31;3.67;;;1.17;;
29382;SDS011;16365;51.598;7.668;2023-01-04T03:54:07;2.03;;;1.05;;
29382;SDS011;16365;51.598;7.668;2023-01-04T03:56:38;3.05;;;1.10;;
29382;SDS011;16365;51.598;7.668;2023-01-04T03:59:07;2.72;;;1.25;;
29382;SDS011;16365;51.598;7.668;2023-01-04T04:01:35;4.47;;;1.10;;
29382;SDS011;16365;51.598;7.668;2023-01-04T04:04:02;1.75;;;1.00;;
29382;SDS011;16365;51.598;7.668;2023-01-04T04:06:47;2.05;;;0.88;;
29382;SDS011;16365;51.598;7.668;2023-01-04T04:09:32;4.90;;;1.50;;
29382;SDS011;16365;51.598;7.668;2023-01-04T04:11:58;2.63;;;1.00;;
29382;SDS011;16365;51.598;7.668;2023-01-04T04:14:25;3.10;;;1.00;;
29382;SDS011;16365;51.598;7.668;2023-01-04T04:16:52;4.50;;;1.17;;
29382;SDS011;16365;51.598;7.668;2023-01-04T04:19:18;2.13;;;0.90;;
29382;SDS011;16365;51.598;7.668;2023-01-04T04:21:45;4.63;;;1.13;;
29382;SDS011;16365;51.598;7.668;2023-01-04T04:24:15;3.30;;;1.02;;
29382;SDS011;16365;51.598;7.668;2023-01-04T04:26:46;1.38;;;0.80;;
29382;SDS011;16365;51.598;7.668;2023-01-04T04:29:13;3.20;;;1.13;;
29382;SDS011;16365;51.598;7.668;2023-01-04T04:31:39;3.08;;;1.08;;
29382;SDS011;16365;51.598;7.668;2023-01-04T04:34:06;1.73;;;1.00;;
29382;SDS011;16365;51.598;7.668;2023-01-04T04:36:32;3.63;;;1.00;;
29382;SDS011;16365;51.598;7.668;2023-01-04T04:38:59;3.28;;;1.17;;
29382;SDS011;16365;51.598;7.668;2023-01-04T04:41:25;2.22;;;1.00;;
29382;SDS011;16365;51.598;7.668;2023-01-04T04:46:35;3.33;;;1.10;;
29382;SDS011;16365;51.598;7.668;2023-01-04T04:49:02;2.95;;;0.90;;
29382;SDS011;16365;51.598;7.668;2023-01-04T04:51:29;2.08;;;1.20;;
29382;SDS011;16365;51.598;7.668;2023-01-04T04:53:55;5.22;;;0.95;;
29382;SDS011;16365;51.598;7.668;2023-01-04T04:56:22;2.70;;;1.02;;
29382;SDS011;16365;51.598;7.668;2023-01-04T04:58:48;1.77;;;1.00;;
29382;SDS011;16365;51.598;7.668;2023-01-04T05:01:15;2.90;;;0.98;;
29382;SDS011;16365;51.598;7.668;2023-01-04T05:03:42;3.35;;;1.20;;
29382;SDS011;16365;51.598;7.668;2023-01-04T05:06:09;4.18;;;0.95;;
29382;SDS011;16365;51.598;7.668;2023-01-04T05:08:35;3.42;;;1.13;;
29382;SDS011;16365;51.598;7.668;2023-01-04T05:11:05;3.20;;;1.08;;
29382;SDS011;16365;51.598;7.668;2023-01-04T05:13:33;2.90;;;1.20;;
29382;SDS011;16365;51.598;7.668;2023-01-04T05:16:00;3.63;;;1.08;;
29382;SDS011;16365;51.598;7.668;2023-01-04T05:18:27;2.17;;;0.87;;
29382;SDS011;16365;51.598;7.668;2023-01-04T05:20:54;2.83;;;0.95;;
29382;SDS011;16365;51.598;7.668;2023-01-04T05:23:20;2.17;;;1.00;;
29382;SDS011;16365;51.598;7.668;2023-01-04T05:25:50;2.42;;;0.70;;
29382;SDS011;16365;51.598;7.668;2023-01-04T05:28:18;2.92;;;1.42;;
29382;SDS011;16365;51.598;7.668;2023-01-04T05:30:44;3.05;;;1.35;;
29382;SDS011;16365;51.598;7.668;2023-01-04T05:33:17;1.58;;;0.93;;
29382;SDS011;16365;51.598;7.668;2023-01-04T05:38:12;5.05;;;1.20;;
29382;SDS011;16365;51.598;7.668;2023-01-04T05:40:38;5.10;;;1.23;;
29382;SDS011;16365;51.598;7.668;2023-01-04T05:43:05;1.83;;;0.85;;
29382;SDS011;16365;51.598;7.668;2023-01-04T05:45:32;1.83;;;0.80;;
29382;SDS011;16365;51.598;7.668;2023-01-04T05:47:58;2.58;;;0.70;;
29382;SDS011;16365;51.598;7.668;2023-01-04T05:50:25;1.40;;;0.75;;
29382;SDS011;16365;51.598;7.668;2023-01-04T05:52:51;1.70;;;0.70;;
29382;SDS011;16365;51.598;7.668;2023-01-04T05:55:18;2.85;;;0.70;;
29382;SDS011;16365;51.598;7.668;2023-01-04T05:57:44;2.00;;;0.68;;
29382;SDS011;16365;51.598;7.668;2023-01-04T06:00:11;1.63;;;0.70;;
29382;SDS011;16365;51.598;7.668;2023-01-04T06:02:39;4.80;;;0.60;;
29382;SDS011;16365;51.598;7.668;2023-01-04T06:05:06;1.73;;;0.90;;
29382;SDS011;16365;51.598;7.668;2023-01-04T06:07:35;0.60;;;0.60;;
29382;SDS011;16365;51.598;7.668;2023-01-04T06:10:02;2.45;;;0.80;;
29382;SDS011;16365;51.598;7.668;2023-01-04T06:12:29;1.58;;;0.70;;
29382;SDS011;16365;51.598;7.668;2023-01-04T06:14:55;1.23;;;0.68;;
29382;SDS011;16365;51.598;7.668;2023-01-04T06:17:22;2.67;;;0.75;;
29382;SDS011;16365;51.598;7.668;2023-01-04T06:19:48;1.38;;;0.57;;
29382;SDS011;16365;51.598;7.668;2023-01-04T06:22:14;1.08;;;0.98;;
29382;SDS011;16365;51.598;7.668;2023-01-04T06:24:41;2.80;;;0.70;;
29382;SDS011;16365;51.598;7.668;2023-01-04T06:27:08;2.20;;;0.70;;
29382;SDS011;16365;51.598;7.668;2023-01-04T06:29:34;1.67;;;0.80;;
29382;SDS011;16365;51.598;7.668;2023-01-04T06:32:01;0.68;;;0.60;;
29382;SDS011;16365;51.598;7.668;2023-01-04T06:34:27;1.27;;;0.50;;
29382;SDS011;16365;51.598;7.668;2023-01-04T06:36:57;1.02;;;0.63;;
29382;SDS011;16365;51.598;7.668;2023-01-04T06:39:23;2.38;;;0.82;;
29382;SDS011;16365;51.598;7.668;2023-01-04T06:41:50;2.10;;;0.90;;
29382;SDS011;16365;51.598;7.668;2023-01-04T06:44:16;0.60;;;0.50;;
29382;SDS011;16365;51.598;7.668;2023-01-04T06:46:43;2.38;;;0.52;;
29382;SDS011;16365;51.598;7.668;2023-01-04T06:49:09;1.05;;;0.70;;
29382;SDS011;16365;51.598;7.668;2023-01-04T06:51:35;1.65;;;0.50;;
29382;SDS011;16365;51.598;7.668;2023-01-04T06:54:02;1.58;;;0.50;;
29382;SDS011;16365;51.598;7.668;2023-01-04T06:56:28;1.00;;;0.85;;
29382;SDS011;16365;51.598;7.668;2023-01-04T06:58:57;1.13;;;0.73;;
29382;SDS011;16365;51.598;7.668;2023-01-04T07:01:23;0.70;;;0.60;;
29382;SDS011;16365;51.598;7.668;2023-01-04T07:03:52;0.50;;;0.50;;
29382;SDS011;16365;51.598;7.668;2023-01-04T07:06:19;0.75;;;0.63;;
29382;SDS011;16365;51.598;7.668;2023-01-04T07:08:46;2.40;;;0.60;;
29382;SDS011;16365;51.598;7.668;2023-01-04T07:11:12;2.15;;;0.40;;
29382;SDS011;16365;51.598;7.668;2023-01-04T07:13:38;1.88;;;0.82;;
29382;SDS011;16365;51.598;7.668;2023-01-04T07:16:05;0.80;;;0.50;;
29382;SDS011;16365;51.598;7.668;2023-01-04T07:18:32;0.75;;;0.40;;
29382;SDS011;16365;51.598;7.668;2023-01-04T07:20:58;0.90;;;0.50;;
29382;SDS011;16365;51.598;7.668;2023-01-04T07:23:25;0.50;;;0.50;;
29382;SDS011;16365;51.598;7.668;2023-01-04T07:25:51;0.73;;;0.40;;
29382;SDS011;16365;51.598;7.668;2023-01-04T07:28:18;0.80;;;0.60;;
29382;SDS011;16365;51.598;7.668;2023-01-04T07:31:05;4.78;;;0.60;;
29382;SDS011;16365;51.598;7.668;2023-01-04T07:33:33;1.33;;;0.50;;
29382;SDS011;16365;51.598;7.668;2023-01-04T07:36:03;0.40;;;0.40;;
29382;SDS011;16365;51.598;7.668;2023-01-04T07:38:31;1.08;;;0.43;;
29382;SDS011;16365;51.598;7.668;2023-01-04T07:40:59;1.23;;;0.80;;
29382;SDS011;16365;51.598;7.668;2023-01-04T07:43:25;1.17;;;0.40;;
29382;SDS011;16365;51.598;7.668;2023-01-04T07:45:53;1.25;;;0.40;;
29382;SDS011;16365;51.598;7.668;2023-01-04T07:48:22;0.68;;;0.60;;
29382;SDS011;16365;51.598;7.668;2023-01-04T07:50:48;1.65;;;0.70;;
29382;SDS011;16365;51.598;7.668;2023-01-04T07:53:18;0.50;;;0.40;;
29382;SDS011;16365;51.598;7.668;2023-01-04T07:55:45;0.55;;;0.55;;
29382;SDS011;16365;51.598;7.668;2023-01-04T07:58:11;1.23;;;0.55;;
29382;SDS011;16365;51.598;7.668;2023-01-04T08:00:38;3.10;;;0.60;;
29382;SDS011;16365;51.598;7.668;2023-01-04T08:03:04;5.95;;;0.70;;
29382;SDS011;16365;51.598;7.668;2023-01-04T08:05:31;1.60;;;0.50;;
29382;SDS011;16365;51.598;7.668;2023-01-04T08:07:58;0.60;;;0.60;;
29382;SDS011;16365;51.598;7.668;2023-01-04T08:10:25;1.48;;;0.73;;
29382;SDS011;16365;51.598;7.668;2023-01-04T08:12:52;0.60;;;0.60;;
29382;SDS011;16365;51.598;7.668;2023-01-04T08:15:18;0.77;;;0.50;;
29382;SDS011;16365;51.598;7.668;2023-01-04T08:17:45;0.52;;;0.40;;
29382;SDS011;16365;51.598;7.668;2023-01-04T08:20:11;1.42;;;0.50;;
29382;SDS011;16365;51.598;7.668;2023-01-04T08:22:38;1.48;;;0.70;;
29382;SDS011;16365;51.598;7.668;2023-01-04T08:25:04;1.65;;;0.60;;
29382;SDS011;16365;51.598;7.668;2023-01-04T08:27:32;0.93;;;0.63;;
29382;SDS011;16365;51.598;7.668;2023-01-04T08:29:59;0.60;;;0.50;;
29382;SDS011;16365;51.598;7.668;2023-01-04T08:32:26;0.88;;;0.52;;
29382;SDS011;16365;51.598;7.668;2023-01-04T08:34:52;1.05;;;0.70;;
29382;SDS011;16365;51.598;7.668;2023-01-04T08:37:19;3.40;;;0.80;;
29382;SDS011;16365;51.598;7.668;2023-01-04T08:39:46;0.85;;;0.65;;
29382;SDS011;16365;51.598;7.668;2023-01-04T08:42:15;1.25;;;0.60;;
29382;SDS011;16365;51.598;7.668;2023-01-04T08:44:53;2.00;;;0.60;;
29382;SDS011;16365;51.598;7.668;2023-01-04T08:47:25;1.15;;;0.70;;
29382;SDS011;16365;51.598;7.668;2023-01-04T08:49:52;1.50;;;0.60;;
29382;SDS011;16365;51.598;7.668;2023-01-04T08:52:19;1.25;;;0.85;;
29382;SDS011;16365;51.598;7.668;2023-01-04T08:54:45;0.57;;;0.57;;
29382;SDS011;16365;51.598;7.668;2023-01-04T08:57:11;0.70;;;0.70;;
29382;SDS011;16365;51.598;7.668;2023-01-04T08:59:38;0.90;;;0.60;;
29382;SDS011;16365;51.598;7.668;2023-01-04T09:02:17;2.10;;;0.70;;
29382;SDS011;16365;51.598;7.668;2023-01-04T09:04:51;0.70;;;0.57;;
29382;SDS011;16365;51.598;7.668;2023-01-04T09:07:18;0.88;;;0.80;;
29382;SDS011;16365;51.598;7.668;2023-01-04T09:09:45;0.60;;;0.60;;
29382;SDS011;16365;51.598;7.668;2023-01-04T09:12:11;1.67;;;0.63;;
29382;SDS011;16365;51.598;7.668;2023-01-04T09:14:38;1.05;;;0.70;;
29382;SDS011;16365;51.598;7.668;2023-01-04T09:17:04;1.83;;;0.80;;
29382;SDS011;16365;51.598;7.668;2023-01-04T09:19:31;1.40;;;0.85;;
29382;SDS011;16365;51.598;7.668;2023-01-04T09:21:58;2.63;;;0.77;;
29382;SDS011;16365;51.598;7.668;2023-01-04T09:24:24;2.03;;;0.70;;
29382;SDS011;16365;51.598;7.668;2023-01-04T09:26:51;2.20;;;0.70;;
29382;SDS011;16365;51.598;7.668;2023-01-04T09:29:17;1.77;;;0.88;;
29382;SDS011;16365;51.598;7.668;2023-01-04T09:31:43;3.97;;;1.00;;
29382;SDS011;16365;51.598;7.668;2023-01-04T09:34:11;2.15;;;0.93;;
29382;SDS011;16365;51.598;7.668;2023-01-04T09:36:41;1.77;;;1.25;;
29382;SDS011;16365;51.598;7.668;2023-01-04T09:39:08;1.83;;;0.88;;
29382;SDS011;16365;51.598;7.668;2023-01-04T09:41:56;0.80;;;0.70;;
29382;SDS011;16365;51.598;7.668;2023-01-04T09:47:37;1.17;;;0.57;;
29382;SDS011;16365;51.598;7.668;2023-01-04T09:50:11;1.33;;;0.70;;
29382;SDS011;16365;51.598;7.668;2023-01-04T09:52:51;1.48;;;0.60;;
29382;SDS011;16365;51.598;7.668;2023-01-04T09:56:09;3.08;;;0.80;;
29382;SDS011;16365;51.598;7.668;2023-01-04T10:00:59;1.63;;;1.00;;
29382;SDS011;16365;51.598;7.668;2023-01-04T10:03:34;1.85;;;0.68;;
29382;SDS011;16365;51.598;7.668;2023-01-04T10:06:13;2.00;;;0.90;;
29382;SDS011;16365;51.598;7.668;2023-01-04T10:08:41;2.25;;;0.98;;
29382;SDS011;16365;51.598;7.668;2023-01-04T10:17:06;5.83;;;1.17;;
29382;SDS011;16365;51.598;7.668;2023-01-04T10:23:07;1.48;;;0.90;;
29382;SDS011;16365;51.598;7.668;2023-01-04T10:31:11;2.65;;;0.80;;
29382;SDS011;16365;51.598;7.668;2023-01-04T10:34:14;3.17;;;0.90;;
29382;SDS011;16365;51.598;7.668;2023-01-04T10:36:44;3.42;;;0.90;;
29382;SDS011;16365;51.598;7.668;2023-01-04T10:39:14;0.90;;;0.85;;
29382;SDS011;16365;51.598;7.668;2023-01-04T10:41:44;2.88;;;1.30;;
29382;SDS011;16365;51.598;7.668;2023-01-04T10:44:19;1.42;;;0.90;;
29382;SDS011;16365;51.598;7.668;2023-01-04T10:47:16;3.88;;;0.90;;
29382;SDS011;16365;51.598;7.668;2023-01-04T10:49:52;2.35;;;1.15;;
29382;SDS011;16365;51.598;7.668;2023-01-04T10:52:23;2.10;;;0.82;;
29382;SDS011;16365;51.598;7.668;2023-01-04T10:55:10;2.50;;;1.20;;
29382;SDS011;16365;51.598;7.668;2023-01-04T10:58:05;0.75;;;0.68;;
29382;SDS011;16365;51.598;7.668;2023-01-04T11:00:42;2.30;;;0.80;;
29382;SDS011;16365;51.598;7.668;2023-01-04T11:03:17;1.90;;;1.00;;
29382;SDS011;16365;51.598;7.668;2023-01-04T11:05:56;2.30;;;1.10;;
29382;SDS011;16365;51.598;7.668;2023-01-04T11:11:00;4.07;;;1.40;;
29382;SDS011;16365;51.598;7.668;2023-01-04T11:13:28;3.35;;;0.75;;
29382;SDS011;16365;51.598;7.668;2023-01-04T11:15:56;4.87;;;1.20;;
29382;SDS011;16365;51.598;7.668;2023-01-04T11:18:24;2.90;;;1.10;;
29382;SDS011;16365;51.598;7.668;2023-01-04T11:20:50;3.08;;;0.77;;
29382;SDS011;16365;51.598;7.668;2023-01-04T11:23:18;2.28;;;0.60;;
29382;SDS011;16365;51.598;7.668;2023-01-04T11:25:47;3.15;;;0.60;;
29382;SDS011;16365;51.598;7.668;2023-01-04T11:31:01;1.25;;;0.60;;
29382;SDS011;16365;51.598;7.668;2023-01-04T11:33:59;2.15;;;0.90;;
29382;SDS011;16365;51.598;7.668;2023-01-04T11:36:31;2.33;;;0.98;;
29382;SDS011;16365;51.598;7.668;2023-01-04T11:39:06;4.35;;;0.80;;
29382;SDS011;16365;51.598;7.668;2023-01-04T11:44:33;1.75;;;0.70;;
29382;SDS011;16365;51.598;7.668;2023-01-04T11:47:05;0.93;;;0.70;;
29382;SDS011;16365;51.598;7.668;2023-01-04T11:49:36;1.88;;;0.88;;
29382;SDS011;16365;51.598;7.668;2023-01-04T11:52:03;3.65;;;1.25;;
29382;SDS011;16365;51.598;7.668;2023-01-04T11:54:30;3.75;;;1.00;;
29382;SDS011;16365;51.598;7.668;2023-01-04T11:57:03;1.90;;;1.00;;
29382;SDS011;16365;51.598;7.668;2023-01-04T11:59:37;2.17;;;1.00;;
29382;SDS011;16365;51.598;7.668;2023-01-04T12:05:23;1.85;;;0.88;;
29382;SDS011;16365;51.598;7.668;2023-01-04T12:07:56;5.00;;;1.05;;
29382;SDS011;16365;51.598;7.668;2023-01-04T12:10:24;1.13;;;0.80;;
29382;SDS011;16365;51.598;7.668;2023-01-04T12:12:53;4.40;;;1.05;;
29382;SDS011;16365;51.598;7.668;2023-01-04T12:15:35;2.20;;;1.23;;
29382;SDS011;16365;51.598;7.668;2023-01-04T12:18:31;4.35;;;1.85;;
29382;SDS011;16365;51.598;7.668;2023-01-04T12:21:01;4.50;;;1.40;;
29382;SDS011;16365;51.598;7.668;2023-01-04T12:23:28;5.57;;;1.20;;
29382;SDS011;16365;51.598;7.668;2023-01-04T12:25:55;2.13;;;0.93;;
29382;SDS011;16365;51.598;7.668;2023-01-04T12:28:29;5.15;;;1.10;;
29382;SDS011;16365;51.598;7.668;2023-01-04T12:33:56;2.85;;;0.95;;
29382;SDS011;16365;51.598;7.668;2023-01-04T12:39:03;1.08;;;0.82;;
29382;SDS011;16365;51.598;7.668;2023-01-04T12:43:59;2.05;;;1.13;;
29382;SDS011;16365;51.598;7.668;2023-01-04T12:46:50;3.97;;;1.13;;
29382;SDS011;16365;51.598;7.668;2023-01-04T12:54:54;2.58;;;0.93;;
29382;SDS011;16365;51.598;7.668;2023-01-04T12:57:24;0.88;;;0.75;;
29382;SDS011;16365;51.598;7.668;2023-01-04T13:00:01;1.92;;;1.05;;
29382;SDS011;16365;51.598;7.668;2023-01-04T13:02:34;1.40;;;0.70;;
29382;SDS011;16365;51.598;7.668;2023-01-04T13:08:07;1.70;;;0.88;;
29382;SDS011;16365;51.598;7.668;2023-01-04T13:13:34;1.15;;;0.95;;
29382;SDS011;16365;51.598;7.668;2023-01-04T13:18:51;1.15;;;0.95;;
29382;SDS011;16365;51.598;7.668;2023-01-04T13:26:50;2.25;;;1.30;;
29382;SDS011;16365;51.598;7.668;2023-01-04T13:29:21;1.00;;;0.85;;
29382;SDS011;16365;51.598;7.668;2023-01-04T13:31:58;3.28;;;0.90;;
29382;SDS011;16365;51.598;7.668;2023-01-04T13:34:37;4.72;;;2.92;;
29382;SDS011;16365;51.598;7.668;2023-01-04T13:39:37;1.38;;;0.80;;
29382;SDS011;16365;51.598;7.668;2023-01-04T13:42:10;0.73;;;0.70;;
29382;SDS011;16365;51.598;7.668;2023-01-04T13:47:48;1.50;;;0.90;;
29382;SDS011;16365;51.598;7.668;2023-01-04T13:50:27;1.70;;;1.00;;
29382;SDS011;16365;51.598;7.668;2023-01-04T13:52:58;1.20;;;1.00;;
29382;SDS011;16365;51.598;7.668;2023-01-04T13:55:33;2.00;;;1.20;;
29382;SDS011;16365;51.598;7.668;2023-01-04T13:58:03;1.70;;;0.90;;
29382;SDS011;16365;51.598;7.668;2023-01-04T14:00:45;0.70;;;0.60;;
29382;SDS011;16365;51.598;7.668;2023-01-04T14:03:32;1.50;;;0.80;;
29382;SDS011;16365;51.598;7.668;2023-01-04T14:06:12;1.20;;;0.68;;
29382;SDS011;16365;51.598;7.668;2023-01-04T14:11:40;0.70;;;0.50;;
29382;SDS011;16365;51.598;7.668;2023-01-04T14:14:44;1.48;;;0.88;;
29382;SDS011;16365;51.598;7.668;2023-01-04T14:17:48;1.70;;;1.10;;
29382;SDS011;16365;51.598;7.668;2023-01-04T14:28:43;0.52;;;0.50;;
29382;SDS011;16365;51.598;7.668;2023-01-04T14:41:37;0.98;;;0.70;;
29382;SDS011;16365;51.598;7.668;2023-01-04T14:46:43;1.30;;;0.63;;
29382;SDS011;16365;51.598;7.668;2023-01-04T14:49:13;0.82;;;0.60;;
29382;SDS011;16365;51.598;7.668;2023-01-04T14:51:42;2.08;;;0.57;;
29382;SDS011;16365;51.598;7.668;2023-01-04T14:54:11;1.02;;;0.70;;
29382;SDS011;16365;51.598;7.668;2023-01-04T14:56:47;1.60;;;0.70;;
29382;SDS011;16365;51.598;7.668;2023-01-04T14:59:14;1.90;;;1.00;;
29382;SDS011;16365;51.598;7.668;2023-01-04T15:01:40;1.60;;;0.90;;
29382;SDS011;16365;51.598;7.668;2023-01-04T15:04:07;2.88;;;1.02;;
29382;SDS011;16365;51.598;7.668;2023-01-04T15:06:34;1.10;;;1.00;;
29382;SDS011;16365;51.598;7.668;2023-01-04T15:09:01;1.40;;;0.80;;
29382;SDS011;16365;51.598;7.668;2023-01-04T15:11:28;0.80;;;0.80;;
29382;SDS011;16365;51.598;7.668;2023-01-04T15:13:56;1.85;;;0.95;;
29382;SDS011;16365;51.598;7.668;2023-01-04T15:16:22;1.35;;;0.63;;
29382;SDS011;16365;51.598;7.668;2023-01-04T15:18:49;1.20;;;0.75;;
29382;SDS011;16365;51.598;7.668;2023-01-04T15:21:15;1.38;;;0.80;;
29382;SDS011;16365;51.598;7.668;2023-01-04T15:23:42;2.78;;;1.10;;
29382;SDS011;16365;51.598;7.668;2023-01-04T15:26:09;2.80;;;1.20;;
29382;SDS011;16365;51.598;7.668;2023-01-04T15:28:37;2.70;;;0.77;;
29382;SDS011;16365;51.598;7.668;2023-01-04T15:31:07;1.88;;;1.10;;
29382;SDS011;16365;51.598;7.668;2023-01-04T15:33:35;1.90;;;0.77;;
29382;SDS011;16365;51.598;7.668;2023-01-04T15:36:12;1.25;;;0.93;;
29382;SDS011;16365;51.598;7.668;2023-01-04T15:38:48;2.50;;;1.10;;
29382;SDS011;16365;51.598;7.668;2023-01-04T15:41:19;4.30;;;1.10;;
29382;SDS011;16365;51.598;7.668;2023-01-04T15:44:04;5.55;;;1.45;;
29382;SDS011;16365;51.598;7.668;2023-01-04T15:46:34;5.18;;;1.15;;
29382;SDS011;16365;51.598;7.668;2023-01-04T15:49:01;1.88;;;0.95;;
29382;SDS011;16365;51.598;7.668;2023-01-04T15:51:29;5.38;;;1.23;;
29382;SDS011;16365;51.598;7.668;2023-01-04T15:53:55;3.47;;;1.30;;
29382;SDS011;16365;51.598;7.668;2023-01-04T15:56:22;3.40;;;1.30;;
29382;SDS011;16365;51.598;7.668;2023-01-04T15:58:52;2.75;;;1.48;;
29382;SDS011;16365;51.598;7.668;2023-01-04T16:01:20;4.20;;;1.75;;
29382;SDS011;16365;51.598;7.668;2023-01-04T16:03:47;2.17;;;1.50;;
29382;SDS011;16365;51.598;7.668;2023-01-04T16:06:19;3.55;;;1.70;;
29382;SDS011;16365;51.598;7.668;2023-01-04T16:08:46;3.47;;;1.75;;
29382;SDS011;16365;51.598;7.668;2023-01-04T16:11:16;11.63;;;3.47;;
29382;SDS011;16365;51.598;7.668;2023-01-04T16:13:46;12.63;;;5.93;;
29382;SDS011;16365;51.598;7.668;2023-01-04T16:16:15;11.80;;;8.20;;
29382;SDS011;16365;51.598;7.668;2023-01-04T16:18:46;8.10;;;5.18;;
29382;SDS011;16365;51.598;7.668;2023-01-04T16:21:15;11.23;;;4.50;;
29382;SDS011;16365;51.598;7.668;2023-01-04T16:23:49;9.70;;;2.95;;
29382;SDS011;16365;51.598;7.668;2023-01-04T16:26:30;6.72;;;2.92;;
29382;SDS011;16365;51.598;7.668;2023-01-04T16:28:58;5.13;;;2.95;;
29382;SDS011;16365;51.598;7.668;2023-01-04T16:31:25;6.00;;;2.95;;
29382;SDS011;16365;51.598;7.668;2023-01-04T16:34:00;9.65;;;2.45;;
29382;SDS011;16365;51.598;7.668;2023-01-04T16:36:28;8.83;;;2.47;;
29382;SDS011;16365;51.598;7.668;2023-01-04T16:38:55;7.18;;;2.60;;
29382;SDS011;16365;51.598;7.668;2023-01-04T16:41:22;7.45;;;3.08;;
29382;SDS011;16365;51.598;7.668;2023-01-04T16:43:51;8.10;;;2.88;;
29382;SDS011;16365;51.598;7.668;2023-01-04T16:46:21;8.38;;;2.75;;
29382;SDS011;16365;51.598;7.668;2023-01-04T16:48:57;5.32;;;2.38;;
29382;SDS011;16365;51.598;7.668;2023-01-04T16:51:27;7.60;;;3.13;;
29382;SDS011;16365;51.598;7.668;2023-01-04T16:53:55;16.13;;;5.95;;
29382;SDS011;16365;51.598;7.668;2023-01-04T16:56:23;14.50;;;5.78;;
29382;SDS011;16365;51.598;7.668;2023-01-04T16:58:50;8.82;;;3.97;;
29382;SDS011;16365;51.598;7.668;2023-01-04T17:01:24;14.18;;;5.10;;
29382;SDS011;16365;51.598;7.668;2023-01-04T17:03:53;15.40;;;6.18;;
29382;SDS011;16365;51.598;7.668;2023-01-04T17:06:22;16.75;;;7.00;;
29382;SDS011;16365;51.598;7.668;2023-01-04T17:08:52;8.20;;;4.57;;
29382;SDS011;16365;51.598;7.668;2023-01-04T17:11:20;10.80;;;4.80;;
29382;SDS011;16365;51.598;7.668;2023-01-04T17:14:12;9.50;;;3.90;;
29382;SDS011;16365;51.598;7.668;2023-01-04T17:16:39;11.02;;;5.65;;
29382;SDS011;16365;51.598;7.668;2023-01-04T17:19:06;13.90;;;4.90;;
29382;SDS011;16365;51.598;7.668;2023-01-04T17:21:35;12.27;;;4.50;;